sensor_id;sensor_type;location;lat;lon;timestamp;pressure;altitude;pressure_sealevel;temperature;humidity
62725;BME280;49026;52.600;4.694;2023-11-21T00:00:46;101082.13;;;9.10;98.04
62725;BME280;49026;52.600;4.694;2023-11-21T00:03:13;101077.75;;;9.11;97.86
62725;BME280;49026;52.600;4.694;2023-11-21T00:05:43;101082.97;;;9.12;97.96
62725;BME280;49026;52.600;4.694;2023-11-21T00:08:08;101083.81;;;9.13;98.03
62725;BME280;49026;52.600;4.694;2023-11-21T00:10:35;101088.19;;;9.12;98.23
62725;BME280;49026;52.600;4.694;2023-11-21T00:13:00;101093.50;;;9.11;98.36
62725;BME280;49026;52.600;4.694;2023-11-21T00:15:27;101088.25;;;9.11;98.39
62725;BME280;49026;52.600;4.694;2023-11-21T00:17:53;101100.56;;;9.07;97.78
62725;BME280;49026;52.600;4.694;2023-11-21T00:20:19;101092.81;;;9.04;98.15
62725;BME280;49026;52.600;4.694;2023-11-21T00:22:45;101095.44;;;9.04;98.17
62725;BME280;49026;52.600;4.694;2023-11-21T00:25:10;101087.69;;;8.99;97.73
62725;BME280;49026;52.600;4.694;2023-11-21T00:27:36;101092.94;;;8.99;98.30
62725;BME280;49026;52.600;4.694;2023-11-21T00:30:03;101092.97;;;8.98;98.08
62725;BME280;49026;52.600;4.694;2023-11-21T00:32:34;101089.50;;;8.97;98.24
62725;BME280;49026;52.600;4.694;2023-11-21T00:35:00;101087.81;;;8.95;98.20
62725;BME280;49026;52.600;4.694;2023-11-21T00:37:28;101085.19;;;8.95;98.07
62725;BME280;49026;52.600;4.694;2023-11-21T00:39:54;101089.59;;;8.94;98.22
62725;BME280;49026;52.600;4.694;2023-11-21T00:42:25;101088.72;;;8.94;98.11
62725;BME280;49026;52.600;4.694;2023-11-21T00:44:50;101099.16;;;8.95;98.13
62725;BME280;49026;52.600;4.694;2023-11-21T00:47:16;101102.56;;;8.99;98.21
62725;BME280;49026;52.600;4.694;2023-11-21T00:49:42;101101.69;;;8.98;98.30
62725;BME280;49026;52.600;4.694;2023-11-21T00:52:10;101101.69;;;8.98;98.33
62725;BME280;49026;52.600;4.694;2023-11-21T00:54:36;101101.69;;;8.98;97.98
62725;BME280;49026;52.600;4.694;2023-11-21T00:57:01;101104.41;;;8.95;98.26
62725;BME280;49026;52.600;4.694;2023-11-21T00:59:27;101110.66;;;8.91;98.26
62725;BME280;49026;52.600;4.694;2023-11-21T01:01:55;101121.22;;;8.88;98.18
62725;BME280;49026;52.600;4.694;2023-11-21T01:04:21;101123.03;;;8.86;98.16
62725;BME280;49026;52.600;4.694;2023-11-21T01:06:47;101127.50;;;8.82;98.35
62725;BME280;49026;52.600;4.694;2023-11-21T01:09:12;101125.78;;;8.81;98.57
62725;BME280;49026;52.600;4.694;2023-11-21T01:11:38;101126.78;;;8.77;98.41
62725;BME280;49026;52.600;4.694;2023-11-21T01:14:04;101143.38;;;8.76;98.14
62725;BME280;49026;52.600;4.694;2023-11-21T01:16:31;101145.13;;;8.77;98.13
62725;BME280;49026;52.600;4.694;2023-11-21T01:18:59;101149.41;;;8.80;98.40
62725;BME280;49026;52.600;4.694;2023-11-21T01:21:25;101154.50;;;8.84;98.59
62725;BME280;49026;52.600;4.694;2023-11-21T01:23:54;101148.28;;;8.88;98.46
62725;BME280;49026;52.600;4.694;2023-11-21T01:26:20;101150.78;;;8.93;98.48
62725;BME280;49026;52.600;4.694;2023-11-21T01:28:46;101163.66;;;9.01;98.75
62725;BME280;49026;52.600;4.694;2023-11-21T01:31:14;101160.97;;;9.04;98.93
62725;BME280;49026;52.600;4.694;2023-11-21T01:33:40;101163.44;;;9.08;98.59
62725;BME280;49026;52.600;4.694;2023-11-21T01:36:05;101169.50;;;9.11;98.73
62725;BME280;49026;52.600;4.694;2023-11-21T01:38:31;101165.97;;;9.12;98.62
62725;BME280;49026;52.600;4.694;2023-11-21T01:40:57;101170.28;;;9.14;98.78
62725;BME280;49026;52.600;4.694;2023-11-21T01:43:23;101169.34;;;9.15;98.89
62725;BME280;49026;52.600;4.694;2023-11-21T01:45:49;101168.41;;;9.18;99.21
62725;BME280;49026;52.600;4.694;2023-11-21T01:48:14;101171.81;;;9.21;99.12
62725;BME280;49026;52.600;4.694;2023-11-21T01:50:42;101166.47;;;9.24;99.35
62725;BME280;49026;52.600;4.694;2023-11-21T01:53:08;101175.19;;;9.25;99.33
62725;BME280;49026;52.600;4.694;2023-11-21T01:55:34;101169.06;;;9.26;99.31
62725;BME280;49026;52.600;4.694;2023-11-21T01:58:00;101177.78;;;9.26;99.40
62725;BME280;49026;52.600;4.694;2023-11-21T02:00:26;101179.56;;;9.26;99.40
62725;BME280;49026;52.600;4.694;2023-11-21T02:02:53;101183.94;;;9.25;99.78
62725;BME280;49026;52.600;4.694;2023-11-21T02:05:19;101183.16;;;9.22;99.68
62725;BME280;49026;52.600;4.694;2023-11-21T02:07:47;101185.81;;;9.20;99.60
62725;BME280;49026;52.600;4.694;2023-11-21T02:10:20;101195.50;;;9.18;99.94
62725;BME280;49026;52.600;4.694;2023-11-21T02:12:49;101199.88;;;9.18;99.93
62725;BME280;49026;52.600;4.694;2023-11-21T02:15:23;101203.41;;;9.17;100.00
62725;BME280;49026;52.600;4.694;2023-11-21T02:17:52;101195.53;;;9.17;100.00
62725;BME280;49026;52.600;4.694;2023-11-21T02:20:24;101198.03;;;9.21;100.00
62725;BME280;49026;52.600;4.694;2023-11-21T02:23:11;101200.59;;;9.23;100.00
62725;BME280;49026;52.600;4.694;2023-11-21T02:25:38;101201.47;;;9.23;100.00
62725;BME280;49026;52.600;4.694;2023-11-21T02:28:03;101211.09;;;9.23;99.83
62725;BME280;49026;52.600;4.694;2023-11-21T02:30:29;101205.00;;;9.22;99.57
62725;BME280;49026;52.600;4.694;2023-11-21T02:32:59;101194.53;;;9.22;99.39
62725;BME280;49026;52.600;4.694;2023-11-21T02:35:25;101204.28;;;9.17;99.38
62725;BME280;49026;52.600;4.694;2023-11-21T02:37:52;101205.34;;;9.10;99.13
62725;BME280;49026;52.600;4.694;2023-11-21T02:40:20;101204.66;;;9.03;99.30
62725;BME280;49026;52.600;4.694;2023-11-21T02:42:49;101203.16;;;8.95;99.05
62725;BME280;49026;52.600;4.694;2023-11-21T02:45:21;101213.75;;;8.90;99.35
62725;BME280;49026;52.600;4.694;2023-11-21T02:47:47;101210.28;;;8.89;99.03
62725;BME280;49026;52.600;4.694;2023-11-21T02:50:21;101220.75;;;8.89;99.02
62725;BME280;49026;52.600;4.694;2023-11-21T02:52:48;101223.38;;;8.89;98.98
62725;BME280;49026;52.600;4.694;2023-11-21T02:55:16;101226.84;;;8.90;98.73
62725;BME280;49026;52.600;4.694;2023-11-21T02:57:41;101227.81;;;8.87;99.01
62725;BME280;49026;52.600;4.694;2023-11-21T03:00:07;101224.38;;;8.85;98.66
62725;BME280;49026;52.600;4.694;2023-11-21T03:02:34;101228.78;;;8.83;98.76
62725;BME280;49026;52.600;4.694;2023-11-21T03:05:05;101222.75;;;8.80;98.59
62725;BME280;49026;52.600;4.694;2023-11-21T03:07:31;101228.97;;;8.77;98.42
62725;BME280;49026;52.600;4.694;2023-11-21T03:09:56;101226.47;;;8.73;98.65
62725;BME280;49026;52.600;4.694;2023-11-21T03:12:22;101229.25;;;8.65;98.40
62725;BME280;49026;52.600;4.694;2023-11-21T03:14:47;101231.22;;;8.57;97.87
62725;BME280;49026;52.600;4.694;2023-11-21T03:17:13;101235.75;;;8.50;98.27
62725;BME280;49026;52.600;4.694;2023-11-21T03:19:41;101242.84;;;8.46;97.91
62725;BME280;49026;52.600;4.694;2023-11-21T03:22:07;101242.78;;;8.48;98.70
62725;BME280;49026;52.600;4.694;2023-11-21T03:24:41;101245.44;;;8.46;98.28
62725;BME280;49026;52.600;4.694;2023-11-21T03:27:06;101250.75;;;8.43;98.17
62725;BME280;49026;52.600;4.694;2023-11-21T03:29:32;101242.06;;;8.41;97.99
62725;BME280;49026;52.600;4.694;2023-11-21T03:34:33;101252.53;;;8.41;98.57
62725;BME280;49026;52.600;4.694;2023-11-21T03:39:34;101252.53;;;8.41;98.19
62725;BME280;49026;52.600;4.694;2023-11-21T03:42:03;101256.00;;;8.43;98.25
62725;BME280;49026;52.600;4.694;2023-11-21T03:44:38;101260.38;;;8.41;97.98
62725;BME280;49026;52.600;4.694;2023-11-21T03:52:15;101265.63;;;8.43;98.35
62725;BME280;49026;52.600;4.694;2023-11-21T03:55:03;101268.13;;;8.47;98.43
62725;BME280;49026;52.600;4.694;2023-11-21T03:57:32;101277.69;;;8.48;98.38
62725;BME280;49026;52.600;4.694;2023-11-21T04:02:32;101288.16;;;8.48;98.70
62725;BME280;49026;52.600;4.694;2023-11-21T04:05:11;101289.91;;;8.49;98.47
62725;BME280;49026;52.600;4.694;2023-11-21T04:07:37;101290.72;;;8.51;98.54
62725;BME280;49026;52.600;4.694;2023-11-21T04:10:05;101295.06;;;8.52;98.83
62725;BME280;49026;52.600;4.694;2023-11-21T04:12:34;101306.41;;;8.53;99.05
62725;BME280;49026;52.600;4.694;2023-11-21T04:15:20;101299.41;;;8.53;98.76
62725;BME280;49026;52.600;4.694;2023-11-21T04:17:50;101304.56;;;8.57;99.00
62725;BME280;49026;52.600;4.694;2023-11-21T04:22:55;101310.50;;;8.63;99.23
62725;BME280;49026;52.600;4.694;2023-11-21T04:25:21;101316.53;;;8.67;98.88
62725;BME280;49026;52.600;4.694;2023-11-21T04:28:03;101313.03;;;8.68;99.13
62725;BME280;49026;52.600;4.694;2023-11-21T04:30:29;101339.22;;;8.68;99.17
62725;BME280;49026;52.600;4.694;2023-11-21T04:32:55;101338.38;;;8.67;99.43
62725;BME280;49026;52.600;4.694;2023-11-21T04:35:24;101342.66;;;8.70;99.69
62725;BME280;49026;52.600;4.694;2023-11-21T04:37:50;101354.88;;;8.71;99.82
62725;BME280;49026;52.600;4.694;2023-11-21T04:40:16;101354.81;;;8.74;99.81
62725;BME280;49026;52.600;4.694;2023-11-21T04:42:42;101359.06;;;8.78;99.66
62725;BME280;49026;52.600;4.694;2023-11-21T04:45:08;101361.63;;;8.81;99.77
62725;BME280;49026;52.600;4.694;2023-11-21T04:47:34;101356.22;;;8.87;99.91
62725;BME280;49026;52.600;4.694;2023-11-21T04:50:00;101361.38;;;8.92;99.95
62725;BME280;49026;52.600;4.694;2023-11-21T04:52:25;101363.84;;;8.97;99.88
62725;BME280;49026;52.600;4.694;2023-11-21T04:54:50;101361.97;;;9.02;99.93
62725;BME280;49026;52.600;4.694;2023-11-21T04:57:16;101360.09;;;9.07;99.87
62725;BME280;49026;52.600;4.694;2023-11-21T04:59:44;101371.34;;;9.12;99.99
62725;BME280;49026;52.600;4.694;2023-11-21T05:02:09;101371.34;;;9.12;99.75
62725;BME280;49026;52.600;4.694;2023-11-21T05:04:34;101374.84;;;9.11;99.65
62725;BME280;49026;52.600;4.694;2023-11-21T05:07:00;101373.97;;;9.12;99.84
62725;BME280;49026;52.600;4.694;2023-11-21T05:09:26;101369.63;;;9.11;99.76
62725;BME280;49026;52.600;4.694;2023-11-21T05:11:53;101376.66;;;9.09;99.81
62725;BME280;49026;52.600;4.694;2023-11-21T05:14:19;101381.03;;;9.08;99.91
62725;BME280;49026;52.600;4.694;2023-11-21T05:16:45;101389.88;;;9.04;100.00
62725;BME280;49026;52.600;4.694;2023-11-21T05:19:11;101395.09;;;9.06;100.00
62725;BME280;49026;52.600;4.694;2023-11-21T05:21:38;101396.78;;;9.07;100.00
62725;BME280;49026;52.600;4.694;2023-11-21T05:24:04;101399.41;;;9.07;100.00
62725;BME280;49026;52.600;4.694;2023-11-21T05:26:31;101404.59;;;9.10;100.00
62725;BME280;49026;52.600;4.694;2023-11-21T05:28:59;101406.31;;;9.11;100.00
62725;BME280;49026;52.600;4.694;2023-11-21T05:31:25;101406.25;;;9.14;100.00
62725;BME280;49026;52.600;4.694;2023-11-21T05:33:56;101407.88;;;9.18;100.00
62725;BME280;49026;52.600;4.694;2023-11-21T05:36:24;101424.44;;;9.20;100.00
62725;BME280;49026;52.600;4.694;2023-11-21T05:41:25;101434.09;;;9.18;100.00
62725;BME280;49026;52.600;4.694;2023-11-21T05:43:51;101438.53;;;9.16;100.00
62725;BME280;49026;52.600;4.694;2023-11-21T05:46:16;101438.59;;;9.13;100.00
62725;BME280;49026;52.600;4.694;2023-11-21T05:48:41;101441.28;;;9.10;100.00
62725;BME280;49026;52.600;4.694;2023-11-21T05:51:07;101443.03;;;9.11;100.00
62725;BME280;49026;52.600;4.694;2023-11-21T05:53:34;101444.84;;;9.09;100.00
62725;BME280;49026;52.600;4.694;2023-11-21T05:56:10;101452.72;;;9.07;100.00
62725;BME280;49026;52.600;4.694;2023-11-21T05:58:54;101440.56;;;9.03;100.00
62725;BME280;49026;52.600;4.694;2023-11-21T06:01:19;101459.06;;;8.99;100.00
62725;BME280;49026;52.600;4.694;2023-11-21T06:03:45;101455.63;;;8.95;100.00
62725;BME280;49026;52.600;4.694;2023-11-21T06:06:11;101458.34;;;8.92;100.00
62725;BME280;49026;52.600;4.694;2023-11-21T06:08:37;101456.69;;;8.88;100.00
62725;BME280;49026;52.600;4.694;2023-11-21T06:11:02;101464.56;;;8.86;100.00
62725;BME280;49026;52.600;4.694;2023-11-21T06:13:28;101475.06;;;8.86;100.00
62725;BME280;49026;52.600;4.694;2023-11-21T06:15:56;101481.22;;;8.85;100.00
62725;BME280;49026;52.600;4.694;2023-11-21T06:18:22;101483.84;;;8.85;100.00
62725;BME280;49026;52.600;4.694;2023-11-21T06:20:47;101486.38;;;8.87;100.00
62725;BME280;49026;52.600;4.694;2023-11-21T06:23:13;101484.66;;;8.87;100.00
62725;BME280;49026;52.600;4.694;2023-11-21T06:25:42;101483.66;;;8.92;100.00
62725;BME280;49026;52.600;4.694;2023-11-21T06:28:07;101490.59;;;8.96;100.00
62725;BME280;49026;52.600;4.694;2023-11-21T06:30:33;101500.13;;;8.98;100.00
62725;BME280;49026;52.600;4.694;2023-11-21T06:32:59;101499.19;;;9.01;100.00
62725;BME280;49026;52.600;4.694;2023-11-21T06:35:25;101500.06;;;9.01;100.00
62725;BME280;49026;52.600;4.694;2023-11-21T06:37:53;101508.69;;;9.05;100.00
62725;BME280;49026;52.600;4.694;2023-11-21T06:40:19;101512.16;;;9.07;100.00
62725;BME280;49026;52.600;4.694;2023-11-21T06:42:45;101519.94;;;9.10;100.00
62725;BME280;49026;52.600;4.694;2023-11-21T06:45:12;101523.41;;;9.12;100.00
62725;BME280;49026;52.600;4.694;2023-11-21T06:47:38;101520.72;;;9.14;100.00
62725;BME280;49026;52.600;4.694;2023-11-21T06:50:05;101533.78;;;9.17;100.00
62725;BME280;49026;52.600;4.694;2023-11-21T06:52:32;101537.28;;;9.17;100.00
62725;BME280;49026;52.600;4.694;2023-11-21T06:54:57;101540.78;;;9.16;100.00
62725;BME280;49026;52.600;4.694;2023-11-21T06:57:23;101537.34;;;9.14;100.00
62725;BME280;49026;52.600;4.694;2023-11-21T06:59:49;101551.28;;;9.16;100.00
62725;BME280;49026;52.600;4.694;2023-11-21T07:02:16;101547.84;;;9.14;100.00
62725;BME280;49026;52.600;4.694;2023-11-21T07:04:46;101556.53;;;9.16;100.00
62725;BME280;49026;52.600;4.694;2023-11-21T07:07:12;101570.50;;;9.15;100.00
62725;BME280;49026;52.600;4.694;2023-11-21T07:09:38;101570.50;;;9.15;100.00
62725;BME280;49026;52.600;4.694;2023-11-21T07:12:04;101579.28;;;9.14;100.00
62725;BME280;49026;52.600;4.694;2023-11-21T07:14:32;101586.25;;;9.15;100.00
62725;BME280;49026;52.600;4.694;2023-11-21T07:16:58;101591.50;;;9.15;100.00
62725;BME280;49026;52.600;4.694;2023-11-21T07:19:26;101588.06;;;9.13;100.00
62725;BME280;49026;52.600;4.694;2023-11-21T07:21:51;101600.31;;;9.13;100.00
62725;BME280;49026;52.600;4.694;2023-11-21T07:24:17;101604.78;;;9.07;100.00
62725;BME280;49026;52.600;4.694;2023-11-21T07:26:43;101607.53;;;9.01;100.00
62725;BME280;49026;52.600;4.694;2023-11-21T07:29:08;101621.66;;;8.96;100.00
62725;BME280;49026;52.600;4.694;2023-11-21T07:31:34;101620.84;;;8.92;100.00
62725;BME280;49026;52.600;4.694;2023-11-21T07:34:00;101614.72;;;8.92;100.00
62725;BME280;49026;52.600;4.694;2023-11-21T07:36:26;101618.25;;;8.90;100.00
62725;BME280;49026;52.600;4.694;2023-11-21T07:38:54;101630.44;;;8.92;100.00
62725;BME280;49026;52.600;4.694;2023-11-21T07:41:19;101629.56;;;8.93;100.00
62725;BME280;49026;52.600;4.694;2023-11-21T07:43:46;101628.66;;;8.94;100.00
62725;BME280;49026;52.600;4.694;2023-11-21T07:46:12;101641.75;;;8.94;100.00
62725;BME280;49026;52.600;4.694;2023-11-21T07:48:38;101644.38;;;8.94;100.00
62725;BME280;49026;52.600;4.694;2023-11-21T07:51:04;101653.09;;;8.96;100.00
62725;BME280;49026;52.600;4.694;2023-11-21T07:53:32;101655.72;;;8.96;100.00
62725;BME280;49026;52.600;4.694;2023-11-21T07:56:02;101658.31;;;8.97;100.00
62725;BME280;49026;52.600;4.694;2023-11-21T07:58:31;101650.47;;;8.96;100.00
62725;BME280;49026;52.600;4.694;2023-11-21T08:29:46;101697.22;;;9.17;100.00
62725;BME280;49026;52.600;4.694;2023-11-21T08:32:11;101694.53;;;9.20;100.00
62725;BME280;49026;52.600;4.694;2023-11-21T08:34:36;101692.78;;;9.21;100.00
62725;BME280;49026;52.600;4.694;2023-11-21T08:37:02;101706.69;;;9.24;100.00
62725;BME280;49026;52.600;4.694;2023-11-21T08:39:28;101707.50;;;9.28;100.00
62725;BME280;49026;52.600;4.694;2023-11-21T08:41:55;101711.84;;;9.29;100.00
62725;BME280;49026;52.600;4.694;2023-11-21T08:44:21;101710.94;;;9.30;100.00
62725;BME280;49026;52.600;4.694;2023-11-21T08:46:46;101719.53;;;9.37;100.00
62725;BME280;49026;52.600;4.694;2023-11-21T08:49:12;101720.31;;;9.42;100.00
62725;BME280;49026;52.600;4.694;2023-11-21T08:51:38;101720.13;;;9.51;100.00
62725;BME280;49026;52.600;4.694;2023-11-21T08:54:04;101712.97;;;9.58;100.00
62725;BME280;49026;52.600;4.694;2023-11-21T08:56:35;101727.69;;;9.65;100.00
62725;BME280;49026;52.600;4.694;2023-11-21T08:59:01;101736.28;;;9.72;100.00
62725;BME280;49026;52.600;4.694;2023-11-21T09:01:31;101742.22;;;9.80;100.00
62725;BME280;49026;52.600;4.694;2023-11-21T09:03:57;101742.97;;;9.85;100.00
62725;BME280;49026;52.600;4.694;2023-11-21T09:06:25;101754.38;;;9.86;100.00
62725;BME280;49026;52.600;4.694;2023-11-21T09:08:51;101753.41;;;9.88;100.00
62725;BME280;49026;52.600;4.694;2023-11-21T09:11:17;101763.03;;;9.89;100.00
62725;BME280;49026;52.600;4.694;2023-11-21T09:13:42;101770.00;;;9.90;100.00
62725;BME280;49026;52.600;4.694;2023-11-21T09:16:08;101760.38;;;9.91;100.00
62725;BME280;49026;52.600;4.694;2023-11-21T09:18:33;101776.16;;;9.89;100.00
62725;BME280;49026;52.600;4.694;2023-11-21T09:20:59;101781.41;;;9.89;100.00
62725;BME280;49026;52.600;4.694;2023-11-21T09:23:25;101789.28;;;9.89;100.00
62725;BME280;49026;52.600;4.694;2023-11-21T09:25:50;101788.34;;;9.92;100.00
62725;BME280;49026;52.600;4.694;2023-11-21T09:28:20;101804.06;;;9.93;100.00
62725;BME280;49026;52.600;4.694;2023-11-21T09:30:45;101803.25;;;9.91;100.00
62725;BME280;49026;52.600;4.694;2023-11-21T09:33:14;101818.09;;;9.92;100.00
62725;BME280;49026;52.600;4.694;2023-11-21T09:35:47;101823.28;;;9.94;100.00
62725;BME280;49026;52.600;4.694;2023-11-21T09:38:13;101825.88;;;9.95;100.00
62725;BME280;49026;52.600;4.694;2023-11-21T09:40:39;101841.59;;;9.98;100.00
62725;BME280;49026;52.600;4.694;2023-11-21T09:43:16;101838.06;;;9.99;100.00
62725;BME280;49026;52.600;4.694;2023-11-21T09:45:47;101855.59;;;9.99;100.00
62725;BME280;49026;52.600;4.694;2023-11-21T09:48:16;101851.31;;;9.93;100.00
62725;BME280;49026;52.600;4.694;2023-11-21T09:50:42;101860.13;;;9.92;100.00
62725;BME280;49026;52.600;4.694;2023-11-21T09:53:19;101858.38;;;9.91;100.00
62725;BME280;49026;52.600;4.694;2023-11-21T09:55:51;101867.06;;;9.93;100.00
62725;BME280;49026;52.600;4.694;2023-11-21T09:58:18;101873.16;;;9.95;100.00
62725;BME280;49026;52.600;4.694;2023-11-21T10:00:48;101873.03;;;10.01;100.00
62725;BME280;49026;52.600;4.694;2023-11-21T10:03:14;101881.72;;;10.04;100.00
62725;BME280;49026;52.600;4.694;2023-11-21T10:05:42;101874.78;;;10.02;100.00
62725;BME280;49026;52.600;4.694;2023-11-21T10:08:08;101875.59;;;10.05;100.00
62725;BME280;49026;52.600;4.694;2023-11-21T10:10:40;101883.44;;;10.06;100.00
62725;BME280;49026;52.600;4.694;2023-11-21T10:13:11;101894.78;;;10.08;100.00
62725;BME280;49026;52.600;4.694;2023-11-21T10:15:37;101902.59;;;10.11;100.00
62725;BME280;49026;52.600;4.694;2023-11-21T10:18:04;101914.72;;;10.17;100.00
62725;BME280;49026;52.600;4.694;2023-11-21T10:20:31;101911.16;;;10.21;100.00
62725;BME280;49026;52.600;4.694;2023-11-21T10:22:57;101903.16;;;10.26;100.00
62725;BME280;49026;52.600;4.694;2023-11-21T10:25:22;101903.94;;;10.31;100.00
62725;BME280;49026;52.600;4.694;2023-11-21T10:27:48;101906.56;;;10.31;99.41
62725;BME280;49026;52.600;4.694;2023-11-21T10:30:17;101900.44;;;10.29;98.56
62725;BME280;49026;52.600;4.694;2023-11-21T10:32:43;101906.63;;;10.28;99.38
62725;BME280;49026;52.600;4.694;2023-11-21T10:35:09;101911.94;;;10.25;98.83
62725;BME280;49026;52.600;4.694;2023-11-21T10:37:40;101905.88;;;10.21;99.02
62725;BME280;49026;52.600;4.694;2023-11-21T10:40:07;101915.50;;;10.20;100.00
62725;BME280;49026;52.600;4.694;2023-11-21T10:42:34;101926.03;;;10.20;99.28
62725;BME280;49026;52.600;4.694;2023-11-21T10:44:59;101929.56;;;10.19;98.77
62725;BME280;49026;52.600;4.694;2023-11-21T10:47:26;101933.03;;;10.20;98.84
62725;BME280;49026;52.600;4.694;2023-11-21T10:49:51;101929.56;;;10.19;98.77
62725;BME280;49026;52.600;4.694;2023-11-21T10:52:19;101918.94;;;10.26;99.24
62725;BME280;49026;52.600;4.694;2023-11-21T10:54:47;101910.03;;;10.33;97.58
62725;BME280;49026;52.600;4.694;2023-11-21T10:57:18;101913.44;;;10.38;95.03
62725;BME280;49026;52.600;4.694;2023-11-21T10:59:56;101922.00;;;10.46;96.29
62725;BME280;49026;52.600;4.694;2023-11-21T11:02:24;101923.28;;;10.66;96.13
62725;BME280;49026;52.600;4.694;2023-11-21T11:05:14;101932.75;;;10.74;95.66
62725;BME280;49026;52.600;4.694;2023-11-21T11:07:44;101937.09;;;10.75;95.92
62725;BME280;49026;52.600;4.694;2023-11-21T11:10:15;101924.94;;;10.71;92.43
62725;BME280;49026;52.600;4.694;2023-11-21T11:12:41;101925.13;;;10.62;91.95
62725;BME280;49026;52.600;4.694;2023-11-21T11:15:09;101928.72;;;10.60;92.91
62725;BME280;49026;52.600;4.694;2023-11-21T11:17:37;101921.81;;;10.54;91.99
62725;BME280;49026;52.600;4.694;2023-11-21T11:20:08;101923.59;;;10.53;93.46
62725;BME280;49026;52.600;4.694;2023-11-21T11:22:42;101928.06;;;10.50;93.52
62725;BME280;49026;52.600;4.694;2023-11-21T11:25:25;101936.22;;;10.37;94.36
62725;BME280;49026;52.600;4.694;2023-11-21T11:28:10;101946.13;;;10.23;95.54
62725;BME280;49026;52.600;4.694;2023-11-21T11:33:57;101955.41;;;9.97;91.90
62725;BME280;49026;52.600;4.694;2023-11-21T11:36:43;101960.81;;;9.88;94.23
62725;BME280;49026;52.600;4.694;2023-11-21T11:43:04;101969.94;;;9.69;94.26
62725;BME280;49026;52.600;4.694;2023-11-21T11:45:46;101969.88;;;9.72;94.48
62725;BME280;49026;52.600;4.694;2023-11-21T12:00:37;101975.88;;;12.94;82.95
62725;BME280;49026;52.600;4.694;2023-11-21T12:03:04;101970.78;;;12.00;82.58
62725;BME280;49026;52.600;4.694;2023-11-21T12:05:34;101973.72;;;11.21;85.50
62725;BME280;49026;52.600;4.694;2023-11-21T12:08:09;101976.81;;;10.63;87.61
62725;BME280;49026;52.600;4.694;2023-11-21T12:10:38;101986.28;;;11.09;91.07
62725;BME280;49026;52.600;4.694;2023-11-21T12:13:10;101992.56;;;12.07;90.93
62725;BME280;49026;52.600;4.694;2023-11-21T12:15:38;102001.19;;;13.02;81.83
62725;BME280;49026;52.600;4.694;2023-11-21T12:18:10;101997.19;;;13.70;80.13
62725;BME280;49026;52.600;4.694;2023-11-21T12:20:44;102002.19;;;13.78;76.79
62725;BME280;49026;52.600;4.694;2023-11-21T12:23:26;102005.09;;;13.45;77.18
62725;BME280;49026;52.600;4.694;2023-11-21T12:25:55;102012.81;;;13.76;76.16
62725;BME280;49026;52.600;4.694;2023-11-21T12:28:57;102013.06;;;14.42;78.63
62725;BME280;49026;52.600;4.694;2023-11-21T12:31:23;102012.56;;;15.02;76.17
62725;BME280;49026;52.600;4.694;2023-11-21T12:33:48;102012.59;;;14.55;71.86
62725;BME280;49026;52.600;4.694;2023-11-21T12:36:15;102021.63;;;13.77;74.48
62725;BME280;49026;52.600;4.694;2023-11-21T12:38:44;102022.19;;;13.33;74.86
62725;BME280;49026;52.600;4.694;2023-11-21T12:41:09;102016.56;;;13.44;75.67
62725;BME280;49026;52.600;4.694;2023-11-21T12:43:35;102025.78;;;13.02;75.37
62725;BME280;49026;52.600;4.694;2023-11-21T12:46:08;102025.38;;;12.86;77.71
62725;BME280;49026;52.600;4.694;2023-11-21T12:48:37;102045.59;;;13.44;79.18
62725;BME280;49026;52.600;4.694;2023-11-21T12:51:08;102050.78;;;13.74;75.61
62725;BME280;49026;52.600;4.694;2023-11-21T12:53:35;102045.91;;;13.86;74.18
62725;BME280;49026;52.600;4.694;2023-11-21T12:56:09;102046.44;;;13.16;71.71
62725;BME280;49026;52.600;4.694;2023-11-21T12:58:38;102041.81;;;12.66;78.07
62725;BME280;49026;52.600;4.694;2023-11-21T13:01:08;102048.31;;;12.54;78.47
62725;BME280;49026;52.600;4.694;2023-11-21T13:03:40;102047.84;;;13.00;74.67
62725;BME280;49026;52.600;4.694;2023-11-21T13:06:07;102057.06;;;13.43;75.69
62725;BME280;49026;52.600;4.694;2023-11-21T13:08:40;102058.38;;;13.28;74.72
62725;BME280;49026;52.600;4.694;2023-11-21T13:11:06;102058.91;;;13.41;77.88
62725;BME280;49026;52.600;4.694;2023-11-21T13:13:32;102060.81;;;14.14;78.87
62725;BME280;49026;52.600;4.694;2023-11-21T13:16:00;102054.25;;;14.73;66.59
62725;BME280;49026;52.600;4.694;2023-11-21T13:18:30;102057.91;;;14.93;70.41
62725;BME280;49026;52.600;4.694;2023-11-21T13:21:02;102060.94;;;14.84;65.39
62725;BME280;49026;52.600;4.694;2023-11-21T13:23:35;102060.44;;;14.74;68.55
62725;BME280;49026;52.600;4.694;2023-11-21T13:26:04;102065.44;;;14.33;72.39
62725;BME280;49026;52.600;4.694;2023-11-21T13:28:31;102071.19;;;13.42;71.33
62725;BME280;49026;52.600;4.694;2023-11-21T13:31:00;102076.38;;;12.57;74.80
62725;BME280;49026;52.600;4.694;2023-11-21T13:33:34;102079.94;;;11.89;77.28
62725;BME280;49026;52.600;4.694;2023-11-21T13:36:04;102088.84;;;11.48;80.69
62725;BME280;49026;52.600;4.694;2023-11-21T13:38:33;102098.28;;;11.20;80.13
62725;BME280;49026;52.600;4.694;2023-11-21T13:41:00;102101.44;;;10.95;83.03
62725;BME280;49026;52.600;4.694;2023-11-21T13:43:26;102115.91;;;10.74;82.65
62725;BME280;49026;52.600;4.694;2023-11-21T14:39:39;102191.53;;;11.06;75.18
62725;BME280;49026;52.600;4.694;2023-11-21T14:42:09;102194.66;;;11.24;77.67
62725;BME280;49026;52.600;4.694;2023-11-21T14:44:36;102192.59;;;11.38;74.60
62725;BME280;49026;52.600;4.694;2023-11-21T14:47:10;102193.00;;;11.20;73.42
62725;BME280;49026;52.600;4.694;2023-11-21T14:53:51;102206.16;;;9.67;79.24
62725;BME280;49026;52.600;4.694;2023-11-21T14:56:42;102211.06;;;9.30;81.27
62725;BME280;49026;52.600;4.694;2023-11-21T14:59:24;102222.75;;;9.04;81.69
62725;BME280;49026;52.600;4.694;2023-11-21T15:05:33;102236.09;;;8.84;85.04